Aeroporto :
LOGIN :

Iscrizione | Disclaimer

   EN    FR    IT 

 










Sommario :    VFR   VFR Marginale   IFR   IFR Intensivo   IFR Molto Intensivo
Visibilità : 
Base nubi : 
>= 8 km
>= 3000ft
5 / 8 km
1000 / 3000 ft
1500m / 5 km
500 / 1000 ft
800 / 1500m
200 / 500 ft
< 800m
< 200 ft
Simboli :   Temporali  Nebbia  Neve Forte  Precipitazioni Forti  Vento > 20 kt
SIGMETs :   Varie  Temporali  Ghiacco  Turbolenza  Onda orograficha  Ceneri Vulcaniche







- Altitudine del aeroporto : 512 ft
- Codice IATA : URO
- Carte del aeroporto


LFOP - Rouen Vallée de Seine

ULTIMO METAR :
  • 162000Z AUTO 18003KT CAVOK 15/11 Q1020 NOSIG

METARs OBSOLETI :
  • 161930Z AUTO 18003KT CAVOK 18/12 Q1020 NOSIG
  • 161900Z AUTO 21003KT CAVOK 20/13 Q1020 NOSIG
  • 161830Z AUTO 23005KT 9999 FEW038 SCT070 20/12 Q1020 NOSIG
  • 161800Z AUTO 25007KT 9999 FEW039 BKN070 21/13 Q1020 NOSIG
  • 161730Z AUTO 24005KT 9999 FEW042 20/12 Q1020 NOSIG

TAF TAF LFOP
Valido dal 16 a 18 ore il 17 a 18 ore UTC


161700Z 1618/1718 18005KT 9999 BKN045
BECMG 1717/1718 36010KT
ATIS : +33 2 35 80 80 34
Met : +33 2 32 86 52 80
Nessun NOTAM noto per questo aeroporto.



MetMap, La meteo Aeronautica in un colpo d'occhio ! - Copyright ORBIFLY Dicembre 2007 - Disclaimer

ORBIFLY MET'MAP TEAM :

Programmazione e sviluppo : Alexandra Zaïnal
Concezione e sviluppo : Baudouin d'Aumeries
Co-Programmazione e sviluppo : Marc-Olivier Méhu
Supporto tecnico e logistico : Manuel Goepfert
Aiuto per la traduzione : Arnaldo La Scala

Contatto : metmap@orbifly.com




FONTI E CREDITI :

   NOAA